createdAt,value
2018-09-23T00:02:23.387Z,98427.18
2018-09-23T00:04:52.742Z,98418.34
2018-09-23T00:07:21.913Z,98421.44
2018-09-23T00:09:51.078Z,98425.20
2018-09-23T00:12:20.298Z,98424.10
2018-09-23T00:14:49.450Z,98411.92
2018-09-23T00:17:19.146Z,98421.94
2018-09-23T00:19:48.329Z,98410.55
2018-09-23T00:22:17.476Z,98394.77
2018-09-23T00:24:47.219Z,98387.59
2018-09-23T00:27:16.383Z,98387.98
2018-09-23T00:29:51.059Z,98392.82
2018-09-23T00:32:22.686Z,98384.48
2018-09-23T00:34:51.921Z,98374.43
2018-09-23T00:37:21.681Z,98377.59
2018-09-23T00:39:50.835Z,98374.39
2018-09-23T00:42:19.975Z,98367.40
2018-09-23T00:44:49.118Z,98361.57
2018-09-23T00:47:18.256Z,98353.13
2018-09-23T00:49:48.109Z,98352.94
2018-09-23T00:52:17.657Z,98346.40
2018-09-23T00:54:46.797Z,98339.11
2018-09-23T00:57:15.959Z,98344.41
2018-09-23T00:59:45.298Z,98351.63
2018-09-23T01:02:14.933Z,98337.91
2018-09-23T01:04:44.445Z,98340.30
2018-09-23T01:07:14.205Z,98330.62
2018-09-23T01:09:43.386Z,98327.17
2018-09-23T01:12:12.545Z,98318.47
2018-09-23T01:14:41.716Z,98309.67
2018-09-23T01:17:11.512Z,98303.55
2018-09-23T01:19:40.638Z,98296.78
2018-09-23T01:22:09.802Z,98302.00
2018-09-23T01:24:39.020Z,98308.39
2018-09-23T01:27:08.202Z,98303.83
2018-09-23T01:29:37.942Z,98306.28
2018-09-23T01:32:07.154Z,98306.53
2018-09-23T01:34:36.290Z,98293.19
2018-09-23T01:37:05.790Z,98291.73
2018-09-23T01:39:34.989Z,98297.93
2018-09-23T01:42:03.981Z,98286.59
2018-09-23T01:44:33.107Z,98281.95
2018-09-23T01:47:02.320Z,98279.56
2018-09-23T01:49:31.444Z,98275.84
2018-09-23T01:52:00.578Z,98263.21
2018-09-23T01:54:30.174Z,98254.76
2018-09-23T01:56:59.706Z,98255.93
2018-09-23T01:59:28.865Z,98247.22
2018-09-23T02:01:57.998Z,98245.60
2018-09-23T02:04:27.171Z,98241.67
2018-09-23T02:06:56.357Z,98241.50
2018-09-23T02:09:26.393Z,98234.94
2018-09-23T02:11:55.646Z,98237.67
2018-09-23T02:14:24.819Z,98225.36
2018-09-23T02:16:53.924Z,98225.47
2018-09-23T02:19:23.342Z,98217.59
2018-09-23T02:21:52.666Z,98214.97
2018-09-23T02:24:21.770Z,98213.38
2018-09-23T02:26:50.914Z,98210.71
2018-09-23T02:29:20.130Z,98197.05
2018-09-23T02:31:49.250Z,98199.50
2018-09-23T02:34:18.407Z,98189.02
2018-09-23T02:36:47.539Z,98181.84
2018-09-23T02:39:16.630Z,98170.08
2018-09-23T02:41:45.743Z,98166.77
2018-09-23T02:44:14.901Z,98153.98
2018-09-23T02:46:44.150Z,98148.67
2018-09-23T02:49:13.782Z,98135.02
2018-09-23T02:51:43.727Z,98136.50
2018-09-23T02:54:13.502Z,98132.67
2018-09-23T02:56:42.733Z,98127.56
2018-09-23T02:59:12.623Z,98121.19
2018-09-23T03:01:41.949Z,98117.72
2018-09-23T03:04:11.391Z,98113.50
2018-09-23T03:06:40.619Z,98115.58
2018-09-23T03:09:10.080Z,98113.13
2018-09-23T03:11:39.232Z,98105.80
2018-09-23T03:14:08.758Z,98098.73
2018-09-23T03:16:37.895Z,98101.19
2018-09-23T03:19:07.062Z,98100.09
2018-09-23T03:21:36.540Z,98103.05
2018-09-23T03:24:05.686Z,98089.31
2018-09-23T03:26:34.822Z,98087.84
2018-09-23T03:29:03.946Z,98088.23
2018-09-23T03:31:33.195Z,98083.13
2018-09-23T03:34:02.333Z,98082.01
2018-09-23T03:36:31.470Z,98068.94
2018-09-23T03:39:00.618Z,98064.80
2018-09-23T03:41:29.754Z,98062.31
2018-09-23T03:43:59.586Z,98065.69
2018-09-23T03:46:28.743Z,98053.20
2018-09-23T03:48:57.898Z,98046.48
2018-09-23T03:51:27.031Z,98046.16
2018-09-23T03:53:56.682Z,98033.58
2018-09-23T03:56:25.925Z,98029.14
2018-09-23T03:58:55.607Z,98024.39
2018-09-23T04:01:24.822Z,98017.92
2018-09-23T04:03:54.083Z,98015.58
2018-09-23T04:06:23.332Z,98014.09
2018-09-23T04:08:52.673Z,98012.03
2018-09-23T04:11:21.901Z,98002.88
2018-09-23T04:13:51.177Z,98002.35
2018-09-23T04:16:20.414Z,97993.75
2018-09-23T04:18:49.677Z,97992.38
2018-09-23T04:21:19.419Z,97986.84
2018-09-23T04:23:48.730Z,97988.86
2018-09-23T04:26:18.009Z,97983.94
2018-09-23T04:28:47.326Z,97979.70
2018-09-23T04:31:16.442Z,97975.34
2018-09-23T04:33:45.567Z,97976.46
2018-09-23T04:36:14.684Z,97980.86
2018-09-23T04:38:43.802Z,97977.82
2018-09-23T04:41:12.922Z,97981.64
2018-09-23T04:43:42.048Z,97981.35
2018-09-23T04:46:11.167Z,97971.67
2018-09-23T04:48:40.287Z,97964.00
2018-09-23T04:51:09.414Z,97967.98
2018-09-23T04:53:38.561Z,97959.41
2018-09-23T04:56:07.690Z,97957.66
2018-09-23T04:58:36.819Z,97960.06
2018-09-23T05:01:06.333Z,97955.25
2018-09-23T05:03:35.506Z,97952.91
2018-09-23T05:06:04.922Z,97954.47
2018-09-23T05:08:34.039Z,97953.41
2018-09-23T05:11:03.706Z,97957.39
2018-09-23T05:13:32.833Z,97954.28
2018-09-23T05:16:01.938Z,97949.22
2018-09-23T05:18:31.075Z,97939.09
2018-09-23T05:21:00.770Z,97944.14
2018-09-23T05:23:29.917Z,97944.11
2018-09-23T05:25:59.034Z,97946.47
2018-09-23T05:28:28.177Z,97945.96
2018-09-23T05:30:57.320Z,97942.31
2018-09-23T05:33:26.435Z,97936.88
2018-09-23T05:35:55.613Z,97937.05
2018-09-23T05:38:24.766Z,97936.30
2018-09-23T05:40:53.961Z,97935.94
2018-09-23T05:43:23.487Z,97940.38
2018-09-23T05:45:52.620Z,97948.83
2018-09-23T05:48:21.742Z,97948.86
2018-09-23T05:50:50.861Z,97942.06
2018-09-23T05:53:20.042Z,97941.63
2018-09-23T05:55:49.827Z,97930.82
2018-09-23T05:58:19.799Z,97931.16
2018-09-23T06:00:51.593Z,97932.23
2018-09-23T06:03:20.997Z,97925.03
2018-09-23T06:05:50.239Z,97929.28
2018-09-23T06:08:20.378Z,97922.06
2018-09-23T06:10:50.199Z,97925.77
2018-09-23T06:13:19.362Z,97925.42
2018-09-23T06:15:49.793Z,97928.50
2018-09-23T06:18:19.990Z,97920.21
2018-09-23T06:20:49.062Z,97916.72
2018-09-23T06:23:18.171Z,97926.66
2018-09-23T06:25:47.993Z,97935.89
2018-09-23T06:28:16.831Z,97936.64
2018-09-23T06:30:46.124Z,97936.50
2018-09-23T06:33:15.222Z,97925.31
2018-09-23T06:35:44.327Z,97928.63
2018-09-23T06:38:13.471Z,97927.34
2018-09-23T06:40:43.389Z,97916.84
2018-09-23T06:43:12.478Z,97919.86
2018-09-23T06:45:41.674Z,97916.64
2018-09-23T06:48:10.751Z,97902.14
2018-09-23T06:50:39.846Z,97919.28
2018-09-23T06:53:08.967Z,97922.98
2018-09-23T06:55:38.382Z,97919.84
2018-09-23T06:58:07.311Z,97910.28
2018-09-23T07:00:36.487Z,97908.20
2018-09-23T07:03:05.650Z,97901.31
2018-09-23T07:05:35.107Z,97909.16
2018-09-23T07:08:04.354Z,97919.87
2018-09-23T07:10:34.087Z,97917.14
2018-09-23T07:13:03.282Z,97927.63
2018-09-23T07:15:32.474Z,97923.11
2018-09-23T07:18:01.606Z,97926.83
2018-09-23T07:20:31.373Z,97917.58
2018-09-23T07:23:00.507Z,97924.48
2018-09-23T07:25:29.594Z,97919.97
2018-09-23T07:27:58.681Z,97922.80
2018-09-23T07:30:27.794Z,97909.62
2018-09-23T07:32:56.874Z,97909.52
2018-09-23T07:35:25.975Z,97916.30
2018-09-23T07:37:55.090Z,97913.50
2018-09-23T07:40:24.191Z,97902.31
2018-09-23T07:42:53.282Z,97897.12
2018-09-23T07:45:22.387Z,97903.39
2018-09-23T07:47:51.504Z,97885.62
2018-09-23T07:50:20.886Z,97896.48
2018-09-23T07:52:50.302Z,97905.52
2018-09-23T07:55:19.434Z,97899.00
2018-09-23T07:57:48.527Z,97891.58
2018-09-23T08:00:17.966Z,97886.67
2018-09-23T08:02:47.183Z,97883.56
2018-09-23T08:05:16.595Z,97889.94
2018-09-23T08:07:46.354Z,97895.58
2018-09-23T08:10:15.535Z,97895.13
2018-09-23T08:12:45.050Z,97889.80
2018-09-23T08:15:14.142Z,97889.08
2018-09-23T08:17:43.721Z,97900.51
2018-09-23T08:20:13.088Z,97890.85
2018-09-23T08:22:42.966Z,97891.41
2018-09-23T08:25:12.826Z,97889.08
2018-09-23T08:27:42.411Z,97890.51
2018-09-23T08:30:11.730Z,97879.81
2018-09-23T08:32:40.922Z,97885.06
2018-09-23T08:35:10.118Z,97883.23
2018-09-23T08:37:39.296Z,97877.06
2018-09-23T08:40:08.564Z,97862.33
2018-09-23T08:42:38.161Z,97879.38
2018-09-23T08:45:07.757Z,97870.58
2018-09-23T08:47:36.954Z,97878.62
2018-09-23T08:50:06.290Z,97869.30
2018-09-23T08:52:36.490Z,97884.34
2018-09-23T08:55:05.786Z,97882.70
2018-09-23T08:57:35.365Z,97882.89
2018-09-23T09:00:04.814Z,97884.84
2018-09-23T09:02:34.284Z,97872.80
2018-09-23T09:05:02.695Z,97872.73
2018-09-23T09:07:33.697Z,97876.86
2018-09-23T09:10:02.907Z,97864.30
2018-09-23T09:12:32.039Z,97865.39
2018-09-23T09:15:01.321Z,97871.79
2018-09-23T09:17:30.583Z,97865.29
2018-09-23T09:20:00.490Z,97862.54
2018-09-23T09:22:29.986Z,97852.73
2018-09-23T09:24:59.085Z,97850.10
2018-09-23T09:27:28.346Z,97860.07
2018-09-23T09:29:57.450Z,97856.87
2018-09-23T09:32:26.554Z,97836.84
2018-09-23T09:34:55.666Z,97842.05
2018-09-23T09:37:24.806Z,97842.50
2018-09-23T09:39:54.850Z,97836.64
2018-09-23T09:42:23.578Z,97836.66
2018-09-23T09:44:52.382Z,97828.53
2018-09-23T09:47:22.572Z,97828.76
2018-09-23T09:49:51.470Z,97830.22
2018-09-23T09:52:21.026Z,97819.64
2018-09-23T09:54:49.576Z,97821.31
2018-09-23T09:57:19.051Z,97830.91
2018-09-23T09:59:48.206Z,97816.13
2018-09-23T10:02:16.286Z,97818.36
2018-09-23T10:04:45.450Z,97801.70
2018-09-23T10:07:14.553Z,97797.73
2018-09-23T10:09:43.917Z,97799.05
2018-09-23T10:12:13.035Z,97793.90
2018-09-23T10:14:43.451Z,97787.31
2018-09-23T10:17:12.636Z,97778.14
2018-09-23T10:19:42.118Z,97788.05
2018-09-23T10:22:11.290Z,97768.14
2018-09-23T10:24:41.058Z,97780.30
2018-09-23T10:27:10.930Z,97785.09
2018-09-23T10:29:40.159Z,97777.68
2018-09-23T10:32:09.698Z,97770.88
2018-09-23T10:34:38.946Z,97779.06
2018-09-23T10:37:08.143Z,97773.87
2018-09-23T10:39:37.494Z,97766.06
2018-09-23T10:42:07.042Z,97762.11
2018-09-23T10:44:36.982Z,97753.92
2018-09-23T10:47:06.658Z,97757.83
2018-09-23T10:49:35.875Z,97762.97
2018-09-23T10:52:05.291Z,97754.64
2018-09-23T10:54:35.014Z,97755.30
2018-09-23T10:57:05.089Z,97746.63
2018-09-23T10:59:34.661Z,97734.32
2018-09-23T11:02:03.932Z,97729.48
2018-09-23T11:04:32.635Z,97735.36
2018-09-23T11:07:01.788Z,97742.03
2018-09-23T11:09:31.166Z,97735.05
2018-09-23T11:12:01.247Z,97725.47
2018-09-23T11:14:30.974Z,97719.97
2018-09-23T11:17:00.159Z,97717.13
2018-09-23T11:19:30.012Z,97716.34
2018-09-23T11:21:59.131Z,97715.06
2018-09-23T11:24:28.210Z,97707.16
2018-09-23T11:26:57.974Z,97705.63
2018-09-23T11:29:27.175Z,97690.83
2018-09-23T11:31:57.187Z,97702.39
2018-09-23T11:34:26.308Z,97682.58
2018-09-23T11:36:56.091Z,97701.92
2018-09-23T11:39:25.264Z,97670.31
2018-09-23T11:41:54.367Z,97688.41
2018-09-23T11:44:23.454Z,97663.58
2018-09-23T11:46:52.564Z,97660.27
2018-09-23T11:49:21.661Z,97641.83
2018-09-23T11:51:52.882Z,97649.98
2018-09-23T11:54:22.018Z,97641.98
2018-09-23T11:56:51.338Z,97651.80
2018-09-23T11:59:20.468Z,97646.95
2018-09-23T12:01:49.462Z,97635.94
2018-09-23T12:04:18.657Z,97633.29
2018-09-23T12:06:47.759Z,97630.63
2018-09-23T12:09:16.847Z,97622.84
2018-09-23T12:11:45.946Z,97624.43
2018-09-23T12:14:15.847Z,97620.77
2018-09-23T12:16:44.956Z,97618.98
2018-09-23T12:19:14.030Z,97623.84
2018-09-23T12:21:43.179Z,97623.09
2018-09-23T12:24:13.318Z,97607.34
2018-09-23T12:26:42.434Z,97618.86
2018-09-23T12:29:12.064Z,97599.80
2018-09-23T12:31:41.182Z,97581.89
2018-09-23T12:34:10.336Z,97594.22
2018-09-23T12:36:39.423Z,97573.12
2018-09-23T12:39:11.160Z,97578.50
2018-09-23T12:41:40.426Z,97579.91
2018-09-23T12:44:10.138Z,97565.00
2018-09-23T12:46:39.311Z,97556.30
2018-09-23T12:49:08.422Z,97546.37
2018-09-23T12:51:37.563Z,97554.36
2018-09-23T12:54:07.262Z,97534.55
2018-09-23T12:56:37.142Z,97528.67
2018-09-23T12:59:06.555Z,97499.49
2018-09-23T13:01:36.095Z,97498.19
2018-09-23T13:04:06.519Z,97485.11
2018-09-23T13:06:35.355Z,97488.25
2018-09-23T13:09:06.530Z,97476.34
2018-09-23T13:11:36.179Z,97467.92
2018-09-23T13:14:05.097Z,97475.30
2018-09-23T13:16:34.632Z,97455.95
2018-09-23T13:19:03.774Z,97457.86
2018-09-23T13:21:32.932Z,97465.48
2018-09-23T13:24:02.042Z,97448.67
2018-09-23T13:26:31.163Z,97443.30
2018-09-23T13:29:00.334Z,97446.30
2018-09-23T13:31:29.442Z,97443.20
2018-09-23T13:33:58.563Z,97429.78
2018-09-23T13:36:28.418Z,97425.91
2018-09-23T13:38:58.270Z,97416.55
2018-09-23T13:41:28.582Z,97398.14
2018-09-23T13:43:58.086Z,97398.95
2018-09-23T13:46:27.741Z,97376.39
2018-09-23T13:48:56.615Z,97374.38
2018-09-23T13:51:25.393Z,97361.52
2018-09-23T13:53:55.254Z,97332.23
2018-09-23T13:56:25.319Z,97336.44
2018-09-23T13:58:54.810Z,97345.62
2018-09-23T14:01:24.186Z,97349.95
2018-09-23T14:03:53.318Z,97353.97
2018-09-23T14:06:22.909Z,97347.78
2018-09-23T14:08:52.348Z,97340.16
2018-09-23T14:11:22.270Z,97328.83
2018-09-23T14:13:51.406Z,97326.45
2018-09-23T14:16:20.703Z,97313.44
2018-09-23T14:18:49.897Z,97331.60
2018-09-23T14:21:19.678Z,97322.94
2018-09-23T14:23:49.299Z,97302.68
2018-09-23T14:26:19.291Z,97323.84
2018-09-23T14:28:48.414Z,97291.19
2018-09-23T14:31:17.180Z,97306.59
2018-09-23T14:33:46.019Z,97287.48
2018-09-23T14:36:15.186Z,97280.82
2018-09-23T14:38:44.767Z,97269.66
2018-09-23T14:41:13.902Z,97263.10
2018-09-23T14:43:43.019Z,97245.62
2018-09-23T14:46:12.195Z,97268.45
2018-09-23T14:48:41.357Z,97246.23
2018-09-23T14:51:10.562Z,97232.04
2018-09-23T14:53:40.043Z,97236.58
2018-09-23T14:56:09.190Z,97201.14
2018-09-23T14:58:38.350Z,97210.17
2018-09-23T15:01:07.459Z,97223.94
2018-09-23T15:03:37.367Z,97202.10
2018-09-23T15:06:07.262Z,97182.06
2018-09-23T15:08:37.111Z,97168.61
2018-09-23T15:11:06.439Z,97180.20
2018-09-23T15:13:35.290Z,97171.91
2018-09-23T15:16:04.439Z,97207.92
2018-09-23T15:18:34.407Z,97189.27
2018-09-23T15:21:03.990Z,97187.81
2018-09-23T15:23:34.274Z,97170.10
2018-09-23T15:26:03.414Z,97173.73
2018-09-23T15:28:32.958Z,97162.77
2018-09-23T15:31:02.139Z,97167.29
2018-09-23T15:33:31.630Z,97168.67
2018-09-23T15:36:01.038Z,97156.17
2018-09-23T15:38:31.877Z,97161.14
2018-09-23T15:41:02.102Z,97166.60
2018-09-23T15:43:32.041Z,97135.25
2018-09-23T15:46:01.903Z,97138.61
2018-09-23T15:48:31.823Z,97135.52
2018-09-23T15:51:01.326Z,97132.86
2018-09-23T15:53:30.307Z,97140.13
2018-09-23T15:55:59.934Z,97126.95
2018-09-23T15:58:30.179Z,97130.93
2018-09-23T16:00:59.713Z,97138.97
2018-09-23T16:03:28.826Z,97126.08
2018-09-23T16:05:57.634Z,97109.83
2018-09-23T16:08:26.458Z,97123.50
2018-09-23T16:10:56.130Z,97143.98
2018-09-23T16:13:26.049Z,97140.42
2018-09-23T16:15:54.855Z,97146.42
2018-09-23T16:18:24.224Z,97141.21
2018-09-23T16:20:53.475Z,97138.73
2018-09-23T16:23:22.751Z,97127.75
2018-09-23T16:25:52.046Z,97121.45
2018-09-23T16:28:21.467Z,97135.37
2018-09-23T16:30:50.813Z,97129.27
2018-09-23T16:33:20.214Z,97129.16
2018-09-23T16:35:49.688Z,97126.79
2018-09-23T16:38:19.000Z,97132.64
2018-09-23T16:40:49.201Z,97155.34
2018-09-23T16:43:18.479Z,97171.22
2018-09-23T16:45:47.767Z,97192.58
2018-09-23T16:48:17.459Z,97208.05
2018-09-23T16:50:46.871Z,97222.66
2018-09-23T16:53:16.227Z,97222.34
2018-09-23T16:55:45.654Z,97251.68
2018-09-23T16:58:13.966Z,97293.64
2018-09-23T17:00:43.201Z,97372.65
2018-09-23T17:03:12.466Z,97337.98
2018-09-23T17:05:41.210Z,97358.20
2018-09-23T17:08:10.678Z,97386.27
2018-09-23T17:10:39.770Z,97395.73
2018-09-23T17:13:08.906Z,97356.61
2018-09-23T17:15:40.430Z,97380.72
2018-09-23T17:18:09.844Z,97420.30
2018-09-23T17:20:39.437Z,97409.67
2018-09-23T17:23:08.729Z,97425.23
2018-09-23T17:25:37.902Z,97409.78
2018-09-23T17:28:07.158Z,97330.44
2018-09-23T17:30:36.906Z,97365.22
2018-09-23T17:33:06.693Z,97406.98
2018-09-23T17:35:35.938Z,97401.16
2018-09-23T17:38:05.029Z,97414.64
2018-09-23T17:40:34.210Z,97421.50
2018-09-23T17:43:03.360Z,97401.61
2018-09-23T17:45:33.182Z,97388.41
2018-09-23T17:48:02.359Z,97413.17
2018-09-23T17:50:32.291Z,97432.36
2018-09-23T17:53:01.534Z,97479.06
2018-09-23T17:55:31.279Z,97514.34
2018-09-23T17:58:01.450Z,97506.14
2018-09-23T18:00:30.555Z,97477.14
2018-09-23T18:02:59.733Z,97459.47
2018-09-23T18:05:28.947Z,97456.91
2018-09-23T18:07:59.504Z,97462.37
2018-09-23T18:10:28.574Z,97459.86
2018-09-23T18:12:57.691Z,97441.19
2018-09-23T18:15:27.306Z,97463.11
2018-09-23T18:17:56.183Z,97465.33
2018-09-23T18:20:25.346Z,97482.34
2018-09-23T18:22:55.419Z,97493.16
2018-09-23T18:25:24.574Z,97527.97
2018-09-23T18:27:53.697Z,97551.14
2018-09-23T18:30:23.263Z,97561.72
2018-09-23T18:32:52.602Z,97551.72
2018-09-23T18:35:21.853Z,97557.41
2018-09-23T18:37:51.260Z,97559.98
2018-09-23T18:40:20.690Z,97596.91
2018-09-23T18:42:50.561Z,97722.61
2018-09-23T18:45:19.775Z,97773.20
2018-09-23T18:47:51.146Z,97785.84
2018-09-23T18:50:21.255Z,97825.67
2018-09-23T18:52:57.383Z,97839.38
2018-09-23T18:55:31.871Z,97859.20
2018-09-23T18:58:01.487Z,97839.83
2018-09-23T19:00:30.756Z,97822.00
2018-09-23T19:03:00.360Z,97865.56
2018-09-23T19:05:29.603Z,97891.88
2018-09-23T19:07:59.346Z,97900.82
2018-09-23T19:10:28.902Z,97912.45
2018-09-23T19:13:03.374Z,97917.86
2018-09-23T19:15:33.256Z,97906.21
2018-09-23T19:18:02.655Z,97889.43
2018-09-23T19:20:32.406Z,97873.84
2018-09-23T19:23:06.820Z,97887.00
2018-09-23T19:25:36.010Z,97898.66
2018-09-23T19:28:05.142Z,97898.27
2018-09-23T19:30:34.273Z,97948.11
2018-09-23T19:33:04.538Z,97964.52
2018-09-23T19:35:32.994Z,97968.53
2018-09-23T19:38:02.850Z,98004.25
2018-09-23T19:40:32.598Z,98057.16
2018-09-23T19:43:02.567Z,98119.07
2018-09-23T19:45:31.730Z,98093.06
2018-09-23T19:48:00.978Z,98083.73
2018-09-23T19:50:30.542Z,98105.70
2018-09-23T19:52:59.674Z,98106.16
2018-09-23T19:55:28.823Z,98124.30
2018-09-23T19:57:58.703Z,98077.11
2018-09-23T20:00:28.252Z,98127.23
2018-09-23T20:02:57.654Z,98156.08
2018-09-23T20:05:27.539Z,98094.67
2018-09-23T20:07:56.762Z,98103.38
2018-09-23T20:10:25.879Z,98107.59
2018-09-23T20:12:55.066Z,98110.61
2018-09-23T20:15:24.226Z,98072.36
2018-09-23T20:17:53.367Z,98092.76
2018-09-23T20:20:22.514Z,98122.41
2018-09-23T20:22:51.973Z,98149.51
2018-09-23T20:25:21.143Z,98131.56
2018-09-23T20:27:50.331Z,98137.14
2018-09-23T20:30:20.139Z,98163.81
2018-09-23T20:32:49.320Z,98181.17
2018-09-23T20:35:18.593Z,98188.81
2018-09-23T20:37:48.358Z,98194.41
2018-09-23T20:40:18.262Z,98223.02
2018-09-23T20:42:47.523Z,98242.70
2018-09-23T20:45:17.330Z,98255.70
2018-09-23T20:47:45.250Z,98285.60
2018-09-23T20:50:14.350Z,98309.70
2018-09-23T20:52:43.507Z,98331.55
2018-09-23T20:55:12.833Z,98355.84
2018-09-23T20:57:41.983Z,98349.72
2018-09-23T21:00:11.580Z,98366.28
2018-09-23T21:02:40.784Z,98376.36
2018-09-23T21:05:10.007Z,98375.38
2018-09-23T21:07:39.318Z,98362.58
2018-09-23T21:10:08.550Z,98355.40
2018-09-23T21:12:38.060Z,98354.37
2018-09-23T21:15:08.677Z,98368.34
2018-09-23T21:17:38.147Z,98371.84
2018-09-23T21:20:07.706Z,98353.66
2018-09-23T21:22:36.958Z,98341.83
2018-09-23T21:25:06.188Z,98348.08
2018-09-23T21:27:35.358Z,98355.47
2018-09-23T21:30:04.673Z,98371.01
2018-09-23T21:32:33.801Z,98365.62
2018-09-23T21:35:03.730Z,98386.67
2018-09-23T21:37:32.578Z,98396.61
2018-09-23T21:40:02.186Z,98405.60
2018-09-23T21:42:32.198Z,98417.17
2018-09-23T21:45:02.923Z,98424.71
2018-09-23T21:47:31.442Z,98441.02
2018-09-23T21:50:01.011Z,98442.03
2018-09-23T21:52:29.844Z,98440.27
2018-09-23T21:54:58.986Z,98454.34
2018-09-23T21:57:28.202Z,98448.50
2018-09-23T21:59:57.374Z,98457.74
2018-09-23T22:02:26.513Z,98457.13
2018-09-23T22:04:55.679Z,98473.39
2018-09-23T22:07:24.886Z,98485.98
2018-09-23T22:09:54.011Z,98491.70
2018-09-23T22:12:23.113Z,98511.30
2018-09-23T22:14:52.233Z,98515.83
2018-09-23T22:17:22.598Z,98523.39
2018-09-23T22:19:51.722Z,98537.88
2018-09-23T22:22:20.887Z,98544.52
2018-09-23T22:24:50.014Z,98559.67
2018-09-23T22:27:19.158Z,98569.02
2018-09-23T22:29:48.536Z,98579.55
2018-09-23T22:32:18.386Z,98585.30
2018-09-23T22:34:48.211Z,98600.58
2018-09-23T22:37:17.578Z,98603.80
2018-09-23T22:39:46.267Z,98609.48
2018-09-23T22:42:15.498Z,98621.64
2018-09-23T22:44:44.675Z,98624.75
2018-09-23T22:47:13.842Z,98638.78
2018-09-23T22:49:43.000Z,98655.94
2018-09-23T22:52:12.750Z,98659.13
2018-09-23T22:54:43.386Z,98664.88
2018-09-23T22:57:12.557Z,98668.67
2018-09-23T22:59:48.592Z,98675.69
2018-09-23T23:02:17.938Z,98687.73
2018-09-23T23:04:47.070Z,98699.59
2018-09-23T23:07:16.445Z,98708.50
2018-09-23T23:09:45.786Z,98715.13
2018-09-23T23:12:14.966Z,98731.62
2018-09-23T23:14:44.614Z,98741.91
2018-09-23T23:17:13.794Z,98753.66
2018-09-23T23:19:43.294Z,98755.58
2018-09-23T23:22:12.451Z,98772.72
2018-09-23T23:24:41.632Z,98782.90
2018-09-23T23:27:13.111Z,98789.52
2018-09-23T23:29:42.262Z,98793.68
2018-09-23T23:32:11.355Z,98798.62
2018-09-23T23:34:40.474Z,98814.23
2018-09-23T23:37:09.611Z,98816.48
2018-09-23T23:39:38.706Z,98827.80
2018-09-23T23:42:07.799Z,98836.56
2018-09-23T23:44:37.003Z,98832.50
2018-09-23T23:47:06.801Z,98839.77
2018-09-23T23:49:35.877Z,98845.22
2018-09-23T23:52:04.990Z,98855.09
2018-09-23T23:54:38.099Z,98871.66
2018-09-23T23:57:07.213Z,98871.39
2018-09-23T23:59:36.330Z,98879.52
